Chapel Hill, North Carolina
Current Conditions -  °F | °C
As of 11:56 AM on Tuesday 21 Oct 2014 (Local Time) from KIGX Reporting Station
Clear Clear  
Wind Chill: 69°   Ceiling: Unl
Heat Index: 69°   Visibility: 10mi
Dew Point: 50°   Wind: 8mph
Humidity: 51%   Direction: 270°W
Pressure: 29.92"   Gusts: NA
Location:  35.91°N, 79.06°W
Report Text: KIGX 211556Z AUTO 27007KT 230V310 10SM CLR 21/10 A2992 RMK AO2 SLP127 T02060100
Loading
Personal Weather Stations






























Interactive Weather Map
Tropical Storm Tracking
New forecast layout! Learn more

10-Day Weather Forecast

Advertisements
Track Severe Weather on mobile